createdAt,value
2018-03-08T00:00:51.185Z,2.45
2018-03-08T00:03:18.666Z,2.46
2018-03-08T00:05:46.222Z,2.42
2018-03-08T00:08:13.727Z,2.37
2018-03-08T00:10:41.189Z,2.34
2018-03-08T00:13:08.646Z,2.35
2018-03-08T00:15:36.238Z,2.33
2018-03-08T00:18:03.692Z,2.33
2018-03-08T00:20:31.156Z,2.32
2018-03-08T00:22:58.716Z,2.31
2018-03-08T00:25:26.176Z,2.28
2018-03-08T00:27:53.652Z,2.28
2018-03-08T00:30:21.178Z,2.24
2018-03-08T00:32:48.652Z,2.23
2018-03-08T00:35:16.118Z,2.28
2018-03-08T00:37:43.585Z,2.28
2018-03-08T00:40:11.110Z,2.27
2018-03-08T00:42:38.703Z,2.24
2018-03-08T00:45:06.175Z,2.24
2018-03-08T00:47:33.688Z,2.23
2018-03-08T00:50:01.180Z,2.17
2018-03-08T00:52:28.681Z,2.16
2018-03-08T00:54:56.155Z,2.15
2018-03-08T00:57:23.614Z,2.17
2018-03-08T00:59:51.120Z,2.18
2018-03-08T01:02:18.584Z,2.21
2018-03-08T01:04:46.058Z,2.24
2018-03-08T01:07:13.537Z,2.24
2018-03-08T01:09:41.037Z,2.34
2018-03-08T01:12:08.504Z,2.34
2018-03-08T01:14:35.988Z,2.29
2018-03-08T01:17:03.480Z,2.24
2018-03-08T01:19:30.945Z,2.20
2018-03-08T01:21:58.429Z,2.20
2018-03-08T01:24:25.923Z,2.22
2018-03-08T01:26:53.382Z,2.22
2018-03-08T01:29:20.836Z,2.18
2018-03-08T01:31:48.351Z,2.14
2018-03-08T01:34:15.811Z,2.13
2018-03-08T01:36:43.279Z,2.12
2018-03-08T01:39:10.766Z,2.15
2018-03-08T01:41:38.237Z,2.10
2018-03-08T01:44:05.701Z,2.09
2018-03-08T01:46:33.185Z,2.07
2018-03-08T01:49:00.648Z,2.09
2018-03-08T01:51:28.129Z,2.13
2018-03-08T01:53:55.650Z,2.15
2018-03-08T01:56:23.206Z,2.15
2018-03-08T01:58:50.701Z,2.16
2018-03-08T02:01:18.204Z,2.17
2018-03-08T02:03:45.688Z,2.17
2018-03-08T02:06:13.194Z,2.16
2018-03-08T02:08:40.666Z,2.15
2018-03-08T02:13:42.065Z,2.19
2018-03-08T02:16:09.561Z,2.21
2018-03-08T02:18:37.039Z,2.22
2018-03-08T02:21:04.554Z,2.25
2018-03-08T02:23:32.013Z,2.28
2018-03-08T02:25:59.569Z,2.28
2018-03-08T02:28:27.113Z,2.27
2018-03-08T02:30:54.589Z,2.29
2018-03-08T02:33:22.081Z,2.28
2018-03-08T02:35:49.575Z,2.27
2018-03-08T02:38:17.064Z,2.28
2018-03-08T02:40:44.573Z,2.28
2018-03-08T02:43:12.039Z,2.28
2018-03-08T02:45:39.531Z,2.30
2018-03-08T02:48:07.026Z,2.32
2018-03-08T02:50:34.530Z,2.32
2018-03-08T02:53:02.011Z,2.29
2018-03-08T02:55:29.509Z,2.30
2018-03-08T02:57:56.996Z,2.29
2018-03-08T03:00:24.485Z,2.28
2018-03-08T03:02:52.022Z,2.23
2018-03-08T03:05:19.497Z,2.17
2018-03-08T03:07:46.961Z,2.13
2018-03-08T03:10:14.445Z,2.15
2018-03-08T03:12:41.926Z,2.16
2018-03-08T03:15:09.396Z,2.17
2018-03-08T03:17:36.856Z,2.18
2018-03-08T03:20:04.351Z,2.19
2018-03-08T03:22:31.847Z,2.21
2018-03-08T03:24:59.353Z,2.22
2018-03-08T03:27:26.852Z,2.24
2018-03-08T03:29:54.324Z,2.26
2018-03-08T03:32:21.802Z,2.27
2018-03-08T03:34:49.306Z,2.25
2018-03-08T03:37:16.782Z,2.23
2018-03-08T03:39:44.260Z,2.21
2018-03-08T03:42:11.735Z,2.19
2018-03-08T03:44:39.222Z,2.14
2018-03-08T03:47:06.700Z,2.07
2018-03-08T03:49:34.179Z,2.01
2018-03-08T03:52:01.687Z,1.99
2018-03-08T03:54:29.152Z,1.98
2018-03-08T03:56:56.632Z,1.95
2018-03-08T03:59:24.169Z,1.96
2018-03-08T04:01:51.734Z,2.01
2018-03-08T04:04:19.259Z,2.01
2018-03-08T04:06:46.760Z,1.99
2018-03-08T04:09:14.248Z,2.02
2018-03-08T04:11:41.728Z,2.04
2018-03-08T04:14:09.219Z,2.04
2018-03-08T04:16:36.714Z,2.05
2018-03-08T04:19:04.223Z,2.07
2018-03-08T04:21:31.735Z,2.10
2018-03-08T04:23:59.243Z,2.11
2018-03-08T04:26:26.752Z,2.12
2018-03-08T04:28:54.247Z,2.13
2018-03-08T04:31:21.702Z,2.18
2018-03-08T04:33:49.189Z,2.15
2018-03-08T04:36:16.687Z,2.15
2018-03-08T04:38:44.150Z,2.12
2018-03-08T04:41:11.626Z,2.16
2018-03-08T04:43:39.122Z,2.19
2018-03-08T04:46:06.584Z,2.20
2018-03-08T04:48:34.053Z,2.24
2018-03-08T04:51:01.571Z,2.21
2018-03-08T04:53:29.130Z,2.13
2018-03-08T04:55:56.632Z,2.15
2018-03-08T04:58:24.130Z,2.21
2018-03-08T05:00:51.636Z,2.24
2018-03-08T05:03:19.102Z,2.31
2018-03-08T05:05:46.591Z,2.36
2018-03-08T05:08:14.065Z,2.38
2018-03-08T05:10:41.537Z,2.41
2018-03-08T05:13:09.020Z,2.39
2018-03-08T05:15:36.492Z,2.37
2018-03-08T05:18:03.952Z,2.34
2018-03-08T05:20:31.439Z,2.31
2018-03-08T05:22:58.935Z,2.29
2018-03-08T05:25:26.435Z,2.28
2018-03-08T05:27:53.918Z,2.26
2018-03-08T05:30:21.501Z,2.26
2018-03-08T05:32:49.007Z,2.23
2018-03-08T05:35:16.470Z,2.23
2018-03-08T05:37:43.941Z,2.21
2018-03-08T05:40:11.638Z,2.23
2018-03-08T05:42:39.096Z,2.21
2018-03-08T05:45:06.565Z,2.22
2018-03-08T05:47:34.054Z,2.20
2018-03-08T05:50:01.523Z,2.22
2018-03-08T05:52:29.044Z,2.28
2018-03-08T05:54:56.567Z,2.31
2018-03-08T05:57:24.035Z,2.32
2018-03-08T05:59:51.504Z,2.38
2018-03-08T06:02:19.005Z,2.41
2018-03-08T06:04:46.500Z,2.45
2018-03-08T06:07:14.003Z,2.53
2018-03-08T06:09:41.489Z,2.58
2018-03-08T06:12:09.012Z,2.63
2018-03-08T06:14:36.516Z,2.67
2018-03-08T06:17:03.980Z,2.74
2018-03-08T06:19:31.519Z,2.78
2018-03-08T06:21:59.024Z,2.82
2018-03-08T06:24:26.483Z,2.86
2018-03-08T06:26:53.987Z,2.88
2018-03-08T06:29:21.475Z,2.94
2018-03-08T06:31:48.926Z,2.97
2018-03-08T06:34:16.398Z,3.02
2018-03-08T06:36:43.907Z,3.08
2018-03-08T06:39:11.408Z,3.11
2018-03-08T06:41:38.866Z,3.11
2018-03-08T06:44:06.479Z,3.13
2018-03-08T06:46:33.995Z,3.14
2018-03-08T06:49:01.496Z,3.15
2018-03-08T06:51:29.020Z,3.16
2018-03-08T06:53:56.580Z,3.17
2018-03-08T06:56:24.062Z,3.18
2018-03-08T06:58:51.575Z,3.18
2018-03-08T07:01:19.087Z,3.24
2018-03-08T07:03:46.553Z,3.28
2018-03-08T07:06:14.031Z,3.28
2018-03-08T07:08:41.584Z,3.33
2018-03-08T07:11:09.051Z,3.37
2018-03-08T07:13:36.532Z,3.44
2018-03-08T07:16:04.090Z,3.50
2018-03-08T07:18:31.564Z,3.55
2018-03-08T07:20:59.019Z,3.59
2018-03-08T07:23:26.559Z,3.64
2018-03-08T07:25:54.021Z,3.67
2018-03-08T07:28:21.491Z,3.67
2018-03-08T07:30:49.250Z,3.71
2018-03-08T07:33:16.734Z,3.74
2018-03-08T07:35:44.215Z,3.78
2018-03-08T07:38:11.690Z,3.82
2018-03-08T07:40:39.168Z,3.87
2018-03-08T07:43:06.660Z,3.91
2018-03-08T07:45:34.131Z,3.88
2018-03-08T07:48:01.604Z,3.88
2018-03-08T07:50:29.078Z,3.85
2018-03-08T07:52:56.543Z,3.87
2018-03-08T07:55:24.113Z,3.89
2018-03-08T07:57:51.576Z,3.94
2018-03-08T08:00:19.056Z,3.99
2018-03-08T08:02:46.553Z,4.05
2018-03-08T08:05:25.984Z,4.11
2018-03-08T08:08:05.263Z,4.13
2018-03-08T08:10:32.811Z,4.11
2018-03-08T08:13:00.252Z,4.11
2018-03-08T08:15:27.750Z,4.13
2018-03-08T08:17:55.207Z,4.13
2018-03-08T08:20:22.734Z,4.15
2018-03-08T08:22:50.227Z,4.21
2018-03-08T08:25:17.778Z,4.28
2018-03-08T08:27:45.239Z,4.32
2018-03-08T08:30:12.774Z,4.30
2018-03-08T08:32:40.347Z,4.26
2018-03-08T08:35:07.840Z,4.21
2018-03-08T08:37:35.324Z,4.18
2018-03-08T08:40:02.809Z,4.14
2018-03-08T08:42:30.319Z,4.11
2018-03-08T08:44:57.827Z,4.08
2018-03-08T08:47:25.314Z,4.12
2018-03-08T08:49:52.838Z,4.09
2018-03-08T08:52:20.302Z,4.10
2018-03-08T08:54:47.824Z,4.11
2018-03-08T08:57:15.337Z,4.11
2018-03-08T08:59:42.807Z,4.09
2018-03-08T09:02:10.310Z,4.12
2018-03-08T09:04:37.778Z,4.14
2018-03-08T09:07:05.308Z,4.17
2018-03-08T09:09:32.841Z,4.16
2018-03-08T09:12:00.375Z,4.13
2018-03-08T09:14:27.852Z,4.13
2018-03-08T09:16:55.305Z,4.14
2018-03-08T09:19:22.755Z,4.17
2018-03-08T09:21:50.246Z,4.18
2018-03-08T09:24:17.719Z,4.18
2018-03-08T09:26:45.174Z,4.17
2018-03-08T09:29:12.673Z,4.16
2018-03-08T09:31:40.197Z,4.15
2018-03-08T09:34:07.781Z,4.17
2018-03-08T09:36:35.376Z,4.11
2018-03-08T09:39:02.913Z,4.09
2018-03-08T09:41:30.376Z,4.04
2018-03-08T09:43:57.878Z,4.01
2018-03-08T09:46:25.358Z,3.99
2018-03-08T09:48:52.814Z,4.00
2018-03-08T09:51:20.279Z,4.02
2018-03-08T09:53:47.760Z,3.95
2018-03-08T09:56:15.233Z,3.89
2018-03-08T09:58:42.738Z,3.85
2018-03-08T10:01:10.205Z,3.86
2018-03-08T10:03:37.685Z,3.85
2018-03-08T10:06:05.159Z,3.82
2018-03-08T10:08:32.626Z,3.81
2018-03-08T10:11:00.096Z,3.84
2018-03-08T10:13:27.615Z,3.89
2018-03-08T10:15:55.073Z,3.93
2018-03-08T10:18:22.586Z,3.92
2018-03-08T10:20:50.090Z,3.93
2018-03-08T10:23:17.542Z,3.95
2018-03-08T10:25:45.025Z,3.98
2018-03-08T10:28:12.558Z,3.99
2018-03-08T10:30:40.061Z,3.99
2018-03-08T10:33:07.623Z,4.02
2018-03-08T10:35:35.150Z,4.08
2018-03-08T10:38:02.628Z,4.15
2018-03-08T10:42:57.605Z,4.11
2018-03-08T10:45:25.089Z,4.06
2018-03-08T10:47:52.540Z,4.08
2018-03-08T10:50:20.032Z,4.14
2018-03-08T10:52:47.556Z,4.15
2018-03-08T10:55:15.060Z,4.16
2018-03-08T10:57:42.526Z,4.16
2018-03-08T11:00:09.996Z,4.17
2018-03-08T11:02:43.161Z,4.22
2018-03-08T11:05:10.640Z,4.27
2018-03-08T11:07:38.120Z,4.32
2018-03-08T11:10:05.597Z,4.45
2018-03-08T11:12:33.100Z,4.58
2018-03-08T11:15:00.631Z,4.66
2018-03-08T11:17:28.102Z,4.78
2018-03-08T11:19:55.638Z,4.90
2018-03-08T11:22:23.114Z,4.99
2018-03-08T11:24:50.589Z,5.01
2018-03-08T11:27:18.090Z,5.09
2018-03-08T11:29:45.639Z,5.20
2018-03-08T11:32:13.155Z,5.28
2018-03-08T11:34:40.631Z,5.24
2018-03-08T11:37:08.202Z,5.39
2018-03-08T11:39:35.692Z,5.70
2018-03-08T11:42:03.162Z,6.05
2018-03-08T11:44:30.640Z,6.46
2018-03-08T11:46:58.090Z,6.74
2018-03-08T11:49:25.643Z,6.59
2018-03-08T11:51:53.135Z,6.57
2018-03-08T11:54:20.596Z,6.64
2018-03-08T11:56:48.091Z,6.63
2018-03-08T11:59:15.656Z,6.46
2018-03-08T12:01:43.110Z,6.35
2018-03-08T12:04:10.588Z,6.28
2018-03-08T12:06:38.055Z,6.15
2018-03-08T12:09:05.515Z,6.04
2018-03-08T12:11:32.991Z,6.12
2018-03-08T12:14:00.493Z,6.46
2018-03-08T12:16:27.958Z,7.00
2018-03-08T12:18:55.410Z,7.29
2018-03-08T12:21:23.004Z,7.07
2018-03-08T12:23:50.463Z,6.97
2018-03-08T12:26:17.922Z,7.20
2018-03-08T12:28:45.406Z,7.33
2018-03-08T12:31:12.975Z,7.49
2018-03-08T12:33:40.443Z,7.47
2018-03-08T12:36:08.133Z,7.45
2018-03-08T12:38:35.614Z,7.50
2018-03-08T12:41:03.067Z,7.46
2018-03-08T12:43:30.583Z,7.56
2018-03-08T12:45:58.086Z,7.80
2018-03-08T12:48:25.543Z,8.10
2018-03-08T12:50:53.006Z,8.14
2018-03-08T12:53:20.512Z,8.24
2018-03-08T12:55:48.058Z,8.27
2018-03-08T12:58:15.633Z,8.13
2018-03-08T13:00:43.122Z,7.83
2018-03-08T13:03:10.597Z,7.56
2018-03-08T13:05:38.107Z,7.40
2018-03-08T13:08:05.587Z,7.29
2018-03-08T13:10:33.048Z,7.29
2018-03-08T13:13:00.522Z,7.30
2018-03-08T13:15:27.996Z,7.47
2018-03-08T13:17:55.578Z,7.77
2018-03-08T13:20:23.030Z,8.04
2018-03-08T13:22:50.488Z,8.25
2018-03-08T13:25:18.004Z,8.41
2018-03-08T13:27:45.500Z,8.48
2018-03-08T13:30:12.966Z,8.57
2018-03-08T13:32:40.544Z,8.63
2018-03-08T13:35:08.106Z,8.64
2018-03-08T13:37:35.612Z,8.69
2018-03-08T13:40:03.071Z,8.83
2018-03-08T13:42:30.536Z,8.97
2018-03-08T13:44:58.005Z,9.11
2018-03-08T13:47:25.467Z,9.14
2018-03-08T13:49:52.971Z,9.15
2018-03-08T13:52:20.438Z,9.27
2018-03-08T13:54:47.971Z,9.12
2018-03-08T13:57:15.482Z,9.00
2018-03-08T13:59:42.938Z,8.99
2018-03-08T14:02:10.391Z,8.98
2018-03-08T14:04:37.867Z,8.69
2018-03-08T14:07:05.330Z,8.47
2018-03-08T14:09:32.791Z,8.41
2018-03-08T14:12:00.267Z,8.35
2018-03-08T14:14:27.759Z,8.30
2018-03-08T14:16:55.225Z,8.26
2018-03-08T14:19:22.725Z,8.33
2018-03-08T14:21:50.195Z,8.72
2018-03-08T14:24:17.742Z,9.18
2018-03-08T14:26:45.211Z,9.36
2018-03-08T14:29:12.718Z,9.32
2018-03-08T14:31:40.183Z,9.27
2018-03-08T14:34:07.662Z,9.34
2018-03-08T14:36:35.168Z,9.43
2018-03-08T14:39:02.628Z,9.38
2018-03-08T14:41:30.089Z,9.24
2018-03-08T14:43:57.576Z,9.20
2018-03-08T14:46:25.062Z,9.27
2018-03-08T14:48:52.534Z,9.37
2018-03-08T14:51:20.040Z,9.46
2018-03-08T14:53:47.514Z,9.58
2018-03-08T14:56:15.001Z,9.61
2018-03-08T14:58:42.457Z,9.52
2018-03-08T15:01:09.921Z,9.31
2018-03-08T15:03:37.410Z,9.27
2018-03-08T15:06:04.863Z,9.26
2018-03-08T15:08:32.355Z,9.25
2018-03-08T15:10:59.816Z,9.23
2018-03-08T15:13:27.293Z,9.17
2018-03-08T15:15:54.800Z,9.15
2018-03-08T15:18:22.283Z,9.04
2018-03-08T15:20:49.740Z,8.95
2018-03-08T15:25:51.083Z,8.66
2018-03-08T15:28:18.565Z,8.62
2018-03-08T15:30:46.043Z,8.68
2018-03-08T15:33:13.502Z,8.72
2018-03-08T15:35:40.983Z,8.73
2018-03-08T15:38:08.522Z,8.67
2018-03-08T15:40:35.974Z,8.57
2018-03-08T15:43:03.449Z,8.53
2018-03-08T15:45:30.906Z,8.49
2018-03-08T15:47:58.415Z,8.49
2018-03-08T15:50:25.889Z,8.47
2018-03-08T15:52:53.351Z,8.44
2018-03-08T15:55:20.831Z,8.41
2018-03-08T15:57:48.371Z,8.38
2018-03-08T16:00:15.824Z,8.32
2018-03-08T16:02:43.405Z,8.27
2018-03-08T16:05:10.866Z,8.25
2018-03-08T16:07:49.970Z,8.23
2018-03-08T16:10:40.178Z,8.15
2018-03-08T16:13:07.773Z,8.04
2018-03-08T16:15:35.259Z,7.96
2018-03-08T16:18:02.711Z,7.87
2018-03-08T16:20:30.173Z,7.79
2018-03-08T16:22:57.650Z,7.71
2018-03-08T16:25:25.125Z,7.63
2018-03-08T16:27:52.580Z,7.57
2018-03-08T16:30:20.074Z,7.47
2018-03-08T16:32:47.526Z,7.40
2018-03-08T16:35:14.974Z,7.32
2018-03-08T16:37:42.455Z,7.29
2018-03-08T16:40:09.902Z,7.24
2018-03-08T16:42:37.350Z,7.20
2018-03-08T16:45:04.823Z,7.15
2018-03-08T16:47:32.283Z,7.12
2018-03-08T16:49:59.746Z,7.07
2018-03-08T16:52:27.231Z,7.05
2018-03-08T16:54:54.701Z,7.02
2018-03-08T16:57:22.212Z,7.05
2018-03-08T16:59:49.651Z,7.07
2018-03-08T17:02:17.142Z,7.10
2018-03-08T17:04:44.683Z,7.12
2018-03-08T17:07:12.201Z,7.11
2018-03-08T17:09:39.698Z,7.11
2018-03-08T17:12:07.150Z,7.12
2018-03-08T17:14:34.686Z,7.13
2018-03-08T17:17:02.158Z,7.13
2018-03-08T17:19:29.607Z,7.11
2018-03-08T17:21:57.198Z,7.11
2018-03-08T17:24:24.626Z,7.10
2018-03-08T17:26:52.090Z,7.09
2018-03-08T17:29:19.611Z,7.11
2018-03-08T17:31:47.062Z,7.11
2018-03-08T17:34:14.528Z,7.08
2018-03-08T17:36:42.446Z,7.04
2018-03-08T17:39:09.917Z,7.01
2018-03-08T17:41:37.438Z,6.96
2018-03-08T17:44:04.895Z,6.93
2018-03-08T17:46:32.351Z,6.87
2018-03-08T17:48:59.821Z,6.82
2018-03-08T17:51:27.307Z,6.75
2018-03-08T17:53:54.854Z,6.68
2018-03-08T17:56:22.309Z,6.80
2018-03-08T17:58:49.787Z,6.87
2018-03-08T18:01:17.276Z,6.74
2018-03-08T18:03:44.743Z,6.59
2018-03-08T18:06:12.204Z,6.60
2018-03-08T18:08:39.677Z,6.48
2018-03-08T18:11:07.151Z,6.36
2018-03-08T18:13:34.644Z,6.26
2018-03-08T18:16:02.098Z,6.17
2018-03-08T18:18:29.551Z,6.08
2018-03-08T18:20:57.044Z,6.01
2018-03-08T18:23:24.501Z,5.95
2018-03-08T18:25:51.999Z,5.91
2018-03-08T18:28:19.455Z,5.88
2018-03-08T18:30:46.921Z,5.86
2018-03-08T18:33:14.426Z,5.82
2018-03-08T18:35:43.064Z,5.80
2018-03-08T18:38:10.596Z,5.79
2018-03-08T18:40:38.292Z,5.79
2018-03-08T18:43:05.751Z,5.76
2018-03-08T18:45:33.205Z,5.74
2018-03-08T18:48:02.339Z,5.71
2018-03-08T18:50:29.911Z,5.70
2018-03-08T18:52:57.360Z,5.68
2018-03-08T18:55:24.827Z,5.65
2018-03-08T18:57:52.300Z,5.65
2018-03-08T19:00:19.848Z,5.62
2018-03-08T19:02:47.306Z,5.59
2018-03-08T19:05:14.762Z,5.55
2018-03-08T19:07:43.063Z,5.50
2018-03-08T19:10:10.532Z,5.47
2018-03-08T19:12:37.990Z,5.47
2018-03-08T19:15:05.462Z,5.42
2018-03-08T19:17:32.948Z,5.40
2018-03-08T19:20:00.432Z,5.38
2018-03-08T19:22:28.059Z,5.38
2018-03-08T19:24:55.541Z,5.39
2018-03-08T19:27:23.022Z,5.40
2018-03-08T19:29:50.486Z,5.41
2018-03-08T19:32:17.987Z,5.43
2018-03-08T19:34:45.460Z,5.46
2018-03-08T19:37:13.079Z,5.47
2018-03-08T19:39:40.602Z,5.51
2018-03-08T19:42:08.095Z,5.53
2018-03-08T19:44:35.570Z,5.54
2018-03-08T19:47:03.057Z,5.53
2018-03-08T19:49:30.591Z,5.54
2018-03-08T19:51:58.066Z,5.52
2018-03-08T19:54:25.528Z,5.51
2018-03-08T19:56:53.028Z,5.51
2018-03-08T19:59:20.490Z,5.49
2018-03-08T20:01:47.956Z,5.49
2018-03-08T20:04:15.447Z,5.51
2018-03-08T20:06:42.917Z,5.54
2018-03-08T20:09:10.409Z,5.53
2018-03-08T20:11:37.894Z,5.50
2018-03-08T20:14:05.402Z,5.47
2018-03-08T20:16:32.871Z,5.44
2018-03-08T20:19:00.365Z,5.42
2018-03-08T20:21:27.855Z,5.39
2018-03-08T20:23:55.326Z,5.37
2018-03-08T20:26:22.802Z,5.34
2018-03-08T20:28:50.290Z,5.31
2018-03-08T20:31:17.751Z,5.31
2018-03-08T20:33:45.258Z,5.29
2018-03-08T20:36:12.763Z,5.30
2018-03-08T20:38:40.322Z,5.32
2018-03-08T20:41:07.852Z,5.32
2018-03-08T20:43:35.608Z,5.33
2018-03-08T20:46:03.074Z,5.34
2018-03-08T20:48:30.662Z,5.36
2018-03-08T20:50:58.167Z,5.37
2018-03-08T20:53:25.663Z,5.39
2018-03-08T20:55:53.134Z,5.42
2018-03-08T20:58:20.627Z,5.44
2018-03-08T21:00:48.109Z,5.47
2018-03-08T21:03:15.576Z,5.49
2018-03-08T21:05:43.051Z,5.52
2018-03-08T21:08:10.494Z,5.54
2018-03-08T21:10:40.807Z,5.57
2018-03-08T21:13:08.304Z,5.57
2018-03-08T21:15:35.828Z,5.57
2018-03-08T21:18:03.386Z,5.56
2018-03-08T21:20:30.889Z,5.56
2018-03-08T21:22:58.432Z,5.57
2018-03-08T21:25:25.908Z,5.56
2018-03-08T21:27:53.436Z,5.57
2018-03-08T21:30:20.936Z,5.58
2018-03-08T21:32:48.418Z,5.60
2018-03-08T21:35:15.877Z,5.60
2018-03-08T21:37:43.457Z,5.55
2018-03-08T21:40:10.914Z,5.50
2018-03-08T21:45:05.180Z,5.39
2018-03-08T21:47:32.662Z,5.32
2018-03-08T21:50:00.132Z,5.26
2018-03-08T21:52:27.598Z,5.23
2018-03-08T21:54:55.052Z,5.16
2018-03-08T21:57:22.531Z,5.11
2018-03-08T21:59:50.025Z,5.06
2018-03-08T22:02:17.731Z,5.02
2018-03-08T22:04:45.179Z,4.97
2018-03-08T22:07:12.666Z,4.96
2018-03-08T22:09:40.232Z,4.94
2018-03-08T22:12:07.708Z,4.95
2018-03-08T22:14:35.176Z,4.94
2018-03-08T22:17:02.633Z,4.86
2018-03-08T22:19:30.110Z,4.81
2018-03-08T22:21:57.587Z,4.77
2018-03-08T22:24:25.051Z,4.74
2018-03-08T22:26:52.656Z,4.74
2018-03-08T22:29:20.132Z,4.75
2018-03-08T22:31:47.591Z,4.76
2018-03-08T22:34:15.085Z,4.92
2018-03-08T22:36:42.589Z,4.88
2018-03-08T22:39:10.072Z,4.80
2018-03-08T22:41:37.726Z,4.79
2018-03-08T22:44:05.184Z,4.75
2018-03-08T22:46:32.686Z,4.72
2018-03-08T22:49:00.152Z,4.70
2018-03-08T22:51:27.651Z,4.67
2018-03-08T22:53:55.118Z,4.67
2018-03-08T22:56:22.639Z,4.65
2018-03-08T22:58:50.101Z,4.61
2018-03-08T23:04:33.450Z,4.58
2018-03-08T23:07:00.919Z,4.61
2018-03-08T23:09:28.463Z,4.37
2018-03-08T23:11:56.168Z,4.15
2018-03-08T23:14:23.678Z,4.00
2018-03-08T23:16:51.122Z,3.79
2018-03-08T23:19:18.595Z,3.66
2018-03-08T23:21:46.054Z,3.64
2018-03-08T23:24:13.529Z,3.63
2018-03-08T23:26:41.007Z,3.62
2018-03-08T23:29:08.461Z,3.65
2018-03-08T23:31:35.903Z,3.63
2018-03-08T23:34:03.500Z,3.58
2018-03-08T23:36:30.958Z,3.65
2018-03-08T23:38:58.412Z,3.67
2018-03-08T23:41:25.970Z,3.68
2018-03-08T23:43:53.429Z,3.67
2018-03-08T23:46:20.918Z,3.64
2018-03-08T23:48:48.404Z,3.59
2018-03-08T23:51:15.850Z,3.56
2018-03-08T23:53:43.356Z,3.52
2018-03-08T23:56:10.807Z,3.47
2018-03-08T23:58:38.260Z,3.40
